createdAt,value
2018-11-11T00:00:23.119Z,13.10
2018-11-11T00:02:52.832Z,13.10
2018-11-11T00:05:21.630Z,13.20
2018-11-11T00:07:50.186Z,13.20
2018-11-11T00:10:18.739Z,13.20
2018-11-11T00:12:47.276Z,13.20
2018-11-11T00:15:16.943Z,13.20
2018-11-11T00:17:47.277Z,13.20
2018-11-11T00:20:16.031Z,13.10
2018-11-11T00:22:44.530Z,13.10
2018-11-11T00:25:13.135Z,13.10
2018-11-11T00:27:41.801Z,13.10
2018-11-11T00:30:13.918Z,13.10
2018-11-11T00:32:42.504Z,13.10
2018-11-11T00:35:11.271Z,13.10
2018-11-11T00:37:40.425Z,13.10
2018-11-11T00:40:09.980Z,13.10
2018-11-11T00:42:38.636Z,13.10
2018-11-11T00:45:08.008Z,13.10
2018-11-11T00:47:36.698Z,13.10
2018-11-11T00:50:06.650Z,13.10
2018-11-11T00:52:35.123Z,13.10
2018-11-11T00:55:03.847Z,13.10
2018-11-11T00:57:32.327Z,13.10
2018-11-11T01:00:00.854Z,13.10
2018-11-11T01:02:29.364Z,13.10
2018-11-11T01:04:57.825Z,13.00
2018-11-11T01:07:26.334Z,13.00
2018-11-11T01:09:54.875Z,13.00
2018-11-11T01:12:23.494Z,13.00
2018-11-11T01:14:51.824Z,13.00
2018-11-11T01:17:20.303Z,13.00
2018-11-11T01:19:48.786Z,12.90
2018-11-11T01:22:17.243Z,13.00
2018-11-11T01:24:45.742Z,12.90
2018-11-11T01:27:14.251Z,12.90
2018-11-11T01:29:42.928Z,12.90
2018-11-11T01:32:11.535Z,12.90
2018-11-11T01:34:40.039Z,12.90
2018-11-11T01:37:08.683Z,12.90
2018-11-11T01:39:37.179Z,12.90
2018-11-11T01:42:06.147Z,12.90
2018-11-11T01:44:34.623Z,12.90
2018-11-11T01:47:03.282Z,12.90
2018-11-11T01:49:31.784Z,12.90
2018-11-11T01:52:00.276Z,12.80
2018-11-11T01:54:28.759Z,12.80
2018-11-11T01:56:57.254Z,12.80
2018-11-11T01:59:25.716Z,12.80
2018-11-11T02:01:54.279Z,12.80
2018-11-11T02:04:22.811Z,12.80
2018-11-11T02:06:51.373Z,12.70
2018-11-11T02:09:20.093Z,12.70
2018-11-11T02:11:48.606Z,12.70
2018-11-11T02:14:17.239Z,12.80
2018-11-11T02:16:45.730Z,12.80
2018-11-11T02:19:14.219Z,12.80
2018-11-11T02:21:42.816Z,12.80
2018-11-11T02:24:11.266Z,12.80
2018-11-11T02:26:39.998Z,12.70
2018-11-11T02:29:08.842Z,12.70
2018-11-11T02:31:37.343Z,12.70
2018-11-11T02:34:06.439Z,12.70
2018-11-11T02:36:34.938Z,12.70
2018-11-11T02:39:03.963Z,12.70
2018-11-11T02:41:32.450Z,12.70
2018-11-11T02:44:01.005Z,12.60
2018-11-11T02:46:29.547Z,12.60
2018-11-11T02:48:58.056Z,12.60
2018-11-11T02:51:26.675Z,12.60
2018-11-11T02:53:55.195Z,12.60
2018-11-11T02:56:23.634Z,12.60
2018-11-11T02:58:52.332Z,12.50
2018-11-11T03:01:21.021Z,12.50
2018-11-11T03:03:49.495Z,12.50
2018-11-11T03:06:18.058Z,12.50
2018-11-11T03:08:46.647Z,12.50
2018-11-11T03:11:15.108Z,12.40
2018-11-11T03:13:43.792Z,12.40
2018-11-11T03:16:12.270Z,12.40
2018-11-11T03:18:40.754Z,12.40
2018-11-11T03:21:09.412Z,12.40
2018-11-11T03:23:37.908Z,12.40
2018-11-11T03:26:06.931Z,12.30
2018-11-11T03:28:35.559Z,12.30
2018-11-11T03:31:04.180Z,12.30
2018-11-11T03:33:32.670Z,12.30
2018-11-11T03:36:01.155Z,12.30
2018-11-11T03:38:29.627Z,12.30
2018-11-11T03:40:58.118Z,12.30
2018-11-11T03:43:26.583Z,12.30
2018-11-11T03:45:55.063Z,12.30
2018-11-11T03:48:23.589Z,12.20
2018-11-11T03:50:52.071Z,12.20
2018-11-11T03:53:20.548Z,12.20
2018-11-11T03:55:49.087Z,12.20
2018-11-11T03:58:17.559Z,12.30
2018-11-11T04:00:46.034Z,12.30
2018-11-11T04:03:14.502Z,12.20
2018-11-11T04:05:43.038Z,12.30
2018-11-11T04:08:11.471Z,12.20
2018-11-11T04:10:39.971Z,12.30
2018-11-11T04:13:08.455Z,12.30
2018-11-11T04:15:37.007Z,12.30
2018-11-11T04:18:05.740Z,12.30
2018-11-11T04:20:34.278Z,12.30
2018-11-11T04:23:02.794Z,12.30
2018-11-11T04:25:31.317Z,12.30
2018-11-11T04:27:59.818Z,12.30
2018-11-11T04:30:28.368Z,12.40
2018-11-11T04:32:57.053Z,12.40
2018-11-11T04:35:25.510Z,12.40
2018-11-11T04:37:54.119Z,12.40
2018-11-11T04:40:22.573Z,12.40
2018-11-11T04:42:51.063Z,12.50
2018-11-11T04:45:19.532Z,12.50
2018-11-11T04:47:48.055Z,12.50
2018-11-11T04:50:17.630Z,12.50
2018-11-11T04:52:46.801Z,12.50
2018-11-11T04:55:15.410Z,12.50
2018-11-11T04:57:44.175Z,12.50
2018-11-11T05:00:13.992Z,12.50
2018-11-11T05:02:42.828Z,12.50
2018-11-11T05:05:12.479Z,12.50
2018-11-11T05:07:41.362Z,12.50
2018-11-11T05:10:10.586Z,12.50
2018-11-11T05:12:39.235Z,12.50
2018-11-11T05:15:09.064Z,12.50
2018-11-11T05:17:37.762Z,12.40
2018-11-11T05:20:07.575Z,12.50
2018-11-11T05:22:36.151Z,12.40
2018-11-11T05:25:05.703Z,12.40
2018-11-11T05:27:34.226Z,12.40
2018-11-11T05:30:02.838Z,12.40
2018-11-11T05:32:31.318Z,12.40
2018-11-11T05:34:59.810Z,12.40
2018-11-11T05:37:28.460Z,12.40
2018-11-11T05:39:57.127Z,12.40
2018-11-11T05:42:25.732Z,12.40
2018-11-11T05:44:54.326Z,12.40
2018-11-11T05:47:22.816Z,12.40
2018-11-11T05:49:51.295Z,12.40
2018-11-11T05:52:19.805Z,12.40
2018-11-11T05:54:48.467Z,12.40
2018-11-11T05:57:17.073Z,12.40
2018-11-11T05:59:45.619Z,12.50
2018-11-11T06:02:14.174Z,12.50
2018-11-11T06:04:42.703Z,12.40
2018-11-11T06:07:11.183Z,12.40
2018-11-11T06:09:39.781Z,12.50
2018-11-11T06:12:08.243Z,12.50
2018-11-11T06:14:36.726Z,12.50
2018-11-11T06:17:05.542Z,12.50
2018-11-11T06:19:34.109Z,12.50
2018-11-11T06:22:02.632Z,12.50
2018-11-11T06:24:31.390Z,12.50
2018-11-11T06:26:59.894Z,12.50
2018-11-11T06:29:28.387Z,12.40
2018-11-11T06:31:56.943Z,12.50
2018-11-11T06:34:25.612Z,12.50
2018-11-11T06:36:54.124Z,12.50
2018-11-11T06:39:22.672Z,12.50
2018-11-11T06:41:51.171Z,12.50
2018-11-11T06:44:19.666Z,12.50
2018-11-11T06:46:48.256Z,12.50
2018-11-11T06:49:16.838Z,12.50
2018-11-11T06:51:45.338Z,12.50
2018-11-11T06:54:13.787Z,12.50
2018-11-11T06:56:42.343Z,12.60
2018-11-11T06:59:10.835Z,12.60
2018-11-11T07:01:39.323Z,12.50
2018-11-11T07:04:08.031Z,12.50
2018-11-11T07:06:36.479Z,12.60
2018-11-11T07:09:06.668Z,12.60
2018-11-11T07:11:35.167Z,12.60
2018-11-11T07:14:03.644Z,12.60
2018-11-11T07:16:32.231Z,12.60
2018-11-11T07:19:00.748Z,12.60
2018-11-11T07:21:29.395Z,12.60
2018-11-11T07:23:57.946Z,12.60
2018-11-11T07:26:26.468Z,12.60
2018-11-11T07:28:54.967Z,12.60
2018-11-11T07:31:23.506Z,12.60
2018-11-11T07:33:51.963Z,12.60
2018-11-11T07:36:20.452Z,12.60
2018-11-11T07:38:48.967Z,12.60
2018-11-11T07:41:17.803Z,12.60
2018-11-11T07:43:46.278Z,12.60
2018-11-11T07:46:14.747Z,12.60
2018-11-11T07:48:43.237Z,12.60
2018-11-11T07:51:11.791Z,12.60
2018-11-11T07:53:40.268Z,12.60
2018-11-11T07:56:08.770Z,12.60
2018-11-11T07:58:37.261Z,12.60
2018-11-11T08:01:06.187Z,12.70
2018-11-11T08:03:34.711Z,12.70
2018-11-11T08:06:03.338Z,12.70
2018-11-11T08:08:31.989Z,12.70
2018-11-11T08:12:09.463Z,12.80
2018-11-11T08:14:37.960Z,12.80
2018-11-11T08:17:06.471Z,12.90
2018-11-11T08:19:35.056Z,12.90
2018-11-11T08:22:03.526Z,13.00
2018-11-11T08:24:32.135Z,13.00
2018-11-11T08:27:00.778Z,13.10
2018-11-11T08:29:29.276Z,13.20
2018-11-11T08:31:57.732Z,13.20
2018-11-11T08:34:26.231Z,13.30
2018-11-11T08:36:54.727Z,13.30
2018-11-11T08:39:23.284Z,13.30
2018-11-11T08:41:51.790Z,13.30
2018-11-11T08:44:20.395Z,13.30
2018-11-11T08:46:48.971Z,13.30
2018-11-11T08:49:17.563Z,13.30
2018-11-11T08:51:46.047Z,13.30
2018-11-11T08:54:14.540Z,13.30
2018-11-11T08:56:43.017Z,13.30
2018-11-11T08:59:11.487Z,13.30
2018-11-11T09:01:40.079Z,13.30
2018-11-11T09:04:08.581Z,13.30
2018-11-11T09:06:37.139Z,13.30
2018-11-11T09:09:07.351Z,13.40
2018-11-11T09:11:36.092Z,13.40
2018-11-11T09:14:05.046Z,13.40
2018-11-11T09:16:33.538Z,13.40
2018-11-11T09:19:02.028Z,13.30
2018-11-11T09:21:30.620Z,13.30
2018-11-11T09:23:59.063Z,13.30
2018-11-11T09:26:27.615Z,13.30
2018-11-11T09:28:56.091Z,13.30
2018-11-11T09:31:24.636Z,13.30
2018-11-11T09:33:53.215Z,13.20
2018-11-11T09:36:21.791Z,13.20
2018-11-11T09:38:50.345Z,13.20
2018-11-11T09:41:18.894Z,13.20
2018-11-11T09:43:47.420Z,13.20
2018-11-11T09:46:15.888Z,13.20
2018-11-11T09:48:44.436Z,13.20
2018-11-11T09:51:12.902Z,13.20
2018-11-11T09:53:41.435Z,13.20
2018-11-11T09:56:09.898Z,13.30
2018-11-11T09:58:38.420Z,13.40
2018-11-11T10:01:06.974Z,13.60
2018-11-11T10:03:44.614Z,13.60
2018-11-11T10:06:22.384Z,13.60
2018-11-11T10:09:03.448Z,13.80
2018-11-11T10:11:37.431Z,13.90
2018-11-11T10:16:15.423Z,14.00
2018-11-11T10:18:48.069Z,14.10
2018-11-11T10:21:29.263Z,14.30
2018-11-11T10:24:12.356Z,14.40
2018-11-11T10:27:15.495Z,14.50
2018-11-11T10:29:54.983Z,14.60
2018-11-11T10:32:39.202Z,14.70
2018-11-11T10:35:13.782Z,14.90
2018-11-11T10:37:46.480Z,15.00
2018-11-11T10:40:19.968Z,15.00
2018-11-11T10:43:54.590Z,15.10
2018-11-11T10:46:33.686Z,15.00
2018-11-11T10:49:06.351Z,15.10
2018-11-11T10:51:35.527Z,15.20
2018-11-11T10:54:04.226Z,15.30
2018-11-11T10:56:32.794Z,15.40
2018-11-11T10:59:01.299Z,15.50
2018-11-11T11:01:36.010Z,15.50
2018-11-11T11:04:04.950Z,15.50
2018-11-11T11:06:38.754Z,15.50
2018-11-11T11:09:12.757Z,15.60
2018-11-11T11:11:42.411Z,15.60
2018-11-11T11:14:11.200Z,15.70
2018-11-11T11:16:39.903Z,15.70
2018-11-11T11:19:08.479Z,15.60
2018-11-11T11:21:36.969Z,15.40
2018-11-11T11:24:05.780Z,15.30
2018-11-11T11:26:34.426Z,15.20
2018-11-11T11:29:02.961Z,15.10
2018-11-11T11:31:31.662Z,15.00
2018-11-11T11:34:00.119Z,14.90
2018-11-11T11:36:28.895Z,14.80
2018-11-11T11:38:57.491Z,14.80
2018-11-11T11:41:26.065Z,14.80
2018-11-11T11:43:54.548Z,14.90
2018-11-11T11:46:23.099Z,14.80
2018-11-11T11:48:51.618Z,14.80
2018-11-11T11:51:20.129Z,14.80
2018-11-11T11:53:48.625Z,14.70
2018-11-11T11:56:17.135Z,14.60
2018-11-11T11:58:45.738Z,14.60
2018-11-11T12:01:14.248Z,14.50
2018-11-11T12:03:42.797Z,14.50
2018-11-11T12:06:11.384Z,14.50
2018-11-11T12:08:40.063Z,14.50
2018-11-11T12:11:08.663Z,14.50
2018-11-11T12:13:37.167Z,14.40
2018-11-11T12:16:06.110Z,14.40
2018-11-11T12:18:34.872Z,14.40
2018-11-11T12:21:03.463Z,14.40
2018-11-11T12:23:32.022Z,14.40
2018-11-11T12:26:00.498Z,14.50
2018-11-11T12:28:29.083Z,14.50
2018-11-11T12:30:57.733Z,14.70
2018-11-11T12:33:26.164Z,14.70
2018-11-11T12:35:54.657Z,14.70
2018-11-11T12:38:23.154Z,14.70
2018-11-11T12:40:51.649Z,14.70
2018-11-11T12:43:20.245Z,14.70
2018-11-11T12:45:48.903Z,14.60
2018-11-11T12:48:17.434Z,14.60
2018-11-11T12:50:46.119Z,14.60
2018-11-11T12:53:14.615Z,14.50
2018-11-11T12:55:43.101Z,14.50
2018-11-11T12:58:11.623Z,14.50
2018-11-11T13:00:40.180Z,14.40
2018-11-11T13:03:08.671Z,14.40
2018-11-11T13:05:37.180Z,14.40
2018-11-11T13:08:06.073Z,14.40
2018-11-11T13:10:34.486Z,14.40
2018-11-11T13:13:02.988Z,14.40
2018-11-11T13:15:31.497Z,14.40
2018-11-11T13:18:00.079Z,14.40
2018-11-11T13:20:28.671Z,14.40
2018-11-11T13:22:57.238Z,14.30
2018-11-11T13:25:25.680Z,14.30
2018-11-11T13:27:54.147Z,14.30
2018-11-11T13:30:22.619Z,14.30
2018-11-11T13:32:51.162Z,14.30
2018-11-11T13:35:19.735Z,14.30
2018-11-11T13:37:48.265Z,14.30
2018-11-11T13:40:19.160Z,14.30
2018-11-11T13:42:47.866Z,14.30
2018-11-11T13:45:18.135Z,14.20
2018-11-11T13:47:47.757Z,14.20
2018-11-11T13:50:17.731Z,14.20
2018-11-11T13:52:46.838Z,14.20
2018-11-11T13:55:16.094Z,14.20
2018-11-11T13:57:45.558Z,14.20
2018-11-11T14:00:18.656Z,14.20
2018-11-11T14:02:47.462Z,14.20
2018-11-11T14:05:16.006Z,14.20
2018-11-11T14:07:44.635Z,14.20
2018-11-11T14:10:13.771Z,14.20
2018-11-11T14:12:42.489Z,14.20
2018-11-11T14:15:17.294Z,14.20
2018-11-11T14:17:46.410Z,14.20
2018-11-11T14:20:16.213Z,14.10
2018-11-11T14:22:46.063Z,14.20
2018-11-11T14:25:17.325Z,14.20
2018-11-11T14:27:46.095Z,14.10
2018-11-11T14:30:17.019Z,14.10
2018-11-11T14:32:46.628Z,14.10
2018-11-11T14:35:15.133Z,14.10
2018-11-11T14:37:44.118Z,14.00
2018-11-11T14:40:29.826Z,14.00
2018-11-11T14:42:58.575Z,14.00
2018-11-11T14:45:27.451Z,13.90
2018-11-11T14:47:56.856Z,13.80
2018-11-11T14:50:25.964Z,13.80
2018-11-11T14:52:54.632Z,13.80
2018-11-11T14:55:25.500Z,13.70
2018-11-11T14:57:54.148Z,13.60
2018-11-11T15:00:25.191Z,13.60
2018-11-11T15:03:01.308Z,13.50
2018-11-11T15:05:29.883Z,13.50
2018-11-11T15:07:58.409Z,13.50
2018-11-11T15:10:26.974Z,13.50
2018-11-11T15:12:55.499Z,13.50
2018-11-11T15:15:24.676Z,13.40
2018-11-11T15:17:54.206Z,13.40
2018-11-11T15:20:22.896Z,13.40
2018-11-11T15:22:51.462Z,13.40
2018-11-11T15:25:21.239Z,13.40
2018-11-11T15:27:49.872Z,13.40
2018-11-11T15:30:21.885Z,13.40
2018-11-11T15:32:50.998Z,13.40
2018-11-11T15:35:19.640Z,13.40
2018-11-11T15:37:48.262Z,13.40
2018-11-11T15:40:18.295Z,13.40
2018-11-11T15:42:46.980Z,13.40
2018-11-11T15:45:19.173Z,13.40
2018-11-11T15:47:47.682Z,13.40
2018-11-11T15:50:18.247Z,13.30
2018-11-11T15:52:48.187Z,13.30
2018-11-11T15:55:17.561Z,13.30
2018-11-11T15:57:46.054Z,13.30
2018-11-11T16:00:16.608Z,13.30
2018-11-11T16:02:45.536Z,13.30
2018-11-11T16:05:14.682Z,13.30
2018-11-11T16:07:44.062Z,13.30
2018-11-11T16:10:14.707Z,13.20
2018-11-11T16:12:43.598Z,13.20
2018-11-11T16:15:17.543Z,13.20
2018-11-11T16:17:47.316Z,13.10
2018-11-11T16:20:18.383Z,13.20
2018-11-11T16:22:48.126Z,13.10
2018-11-11T16:25:16.645Z,13.10
2018-11-11T16:27:45.942Z,13.10
2018-11-11T16:30:16.659Z,13.10
2018-11-11T16:32:45.783Z,13.10
2018-11-11T16:35:15.839Z,13.10
2018-11-11T16:37:44.551Z,13.10
2018-11-11T16:40:15.287Z,13.10
2018-11-11T16:42:44.293Z,13.10
2018-11-11T16:45:15.121Z,13.10
2018-11-11T16:47:43.692Z,13.10
2018-11-11T16:50:14.971Z,13.10
2018-11-11T16:52:44.486Z,13.10
2018-11-11T16:55:14.363Z,13.10
2018-11-11T16:57:43.019Z,13.10
2018-11-11T17:00:14.082Z,13.10
2018-11-11T17:02:43.172Z,13.10
2018-11-11T17:05:16.276Z,13.10
2018-11-11T17:07:45.147Z,13.10
2018-11-11T17:10:15.276Z,13.10
2018-11-11T17:12:44.557Z,13.10
2018-11-11T17:15:15.334Z,13.10
2018-11-11T17:17:43.866Z,13.10
2018-11-11T17:20:14.216Z,13.10
2018-11-11T17:22:43.356Z,13.10
2018-11-11T17:25:13.011Z,13.10
2018-11-11T17:27:41.754Z,13.10
2018-11-11T17:30:12.040Z,13.20
2018-11-11T17:32:40.972Z,13.20
2018-11-11T17:35:09.910Z,13.20
2018-11-11T17:37:38.799Z,13.20
2018-11-11T17:40:13.479Z,13.20
2018-11-11T17:42:43.338Z,13.20
2018-11-11T17:45:12.470Z,13.20
2018-11-11T17:47:41.826Z,13.20
2018-11-11T17:50:12.963Z,13.20
2018-11-11T17:52:41.604Z,13.20
2018-11-11T17:55:11.614Z,13.20
2018-11-11T17:57:40.357Z,13.20
2018-11-11T18:00:10.571Z,13.20
2018-11-11T18:02:39.268Z,13.30
2018-11-11T18:05:08.732Z,13.20
2018-11-11T18:07:37.461Z,13.30
2018-11-11T18:10:08.463Z,13.30
2018-11-11T18:12:37.494Z,13.30
2018-11-11T18:15:06.759Z,13.30
2018-11-11T18:17:35.307Z,13.30
2018-11-11T18:20:03.876Z,13.30
2018-11-11T18:22:32.415Z,13.30
2018-11-11T18:25:00.988Z,13.30
2018-11-11T18:27:29.695Z,13.30
2018-11-11T18:29:58.043Z,13.30
2018-11-11T18:32:26.514Z,13.30
2018-11-11T18:34:55.011Z,13.30
2018-11-11T18:37:23.705Z,13.30
2018-11-11T18:39:52.379Z,13.30
2018-11-11T18:42:20.806Z,13.30
2018-11-11T18:44:49.370Z,13.40
2018-11-11T18:47:17.966Z,13.30
2018-11-11T18:49:46.591Z,13.40
2018-11-11T18:52:15.176Z,13.40
2018-11-11T18:54:43.675Z,13.40
2018-11-11T18:57:12.453Z,13.40
2018-11-11T18:59:40.801Z,13.40
2018-11-11T19:02:09.479Z,13.40
2018-11-11T19:04:38.048Z,13.40
2018-11-11T19:07:06.602Z,13.40
2018-11-11T19:09:35.079Z,13.40
2018-11-11T19:12:03.803Z,13.40
2018-11-11T19:14:32.462Z,13.40
2018-11-11T19:17:00.980Z,13.40
2018-11-11T19:19:29.643Z,13.40
2018-11-11T19:21:58.257Z,13.40
2018-11-11T19:24:26.893Z,13.40
2018-11-11T19:26:55.424Z,13.40
2018-11-11T19:29:23.976Z,13.40
2018-11-11T19:31:52.561Z,13.40
2018-11-11T19:34:21.271Z,13.30
2018-11-11T19:36:49.920Z,13.30
2018-11-11T19:39:18.431Z,13.30
2018-11-11T19:41:46.967Z,13.30
2018-11-11T19:44:16.098Z,13.30
2018-11-11T19:46:44.594Z,13.20
2018-11-11T19:49:13.322Z,13.20
2018-11-11T19:51:41.890Z,13.10
2018-11-11T19:54:10.390Z,13.10
2018-11-11T19:56:38.978Z,12.90
2018-11-11T19:59:07.655Z,12.90
2018-11-11T20:01:36.147Z,12.80
2018-11-11T20:04:05.200Z,12.50
2018-11-11T20:06:33.886Z,12.50
2018-11-11T20:09:02.521Z,12.40
2018-11-11T20:11:31.317Z,12.30
2018-11-11T20:13:59.875Z,12.30
2018-11-11T20:16:28.430Z,12.30
2018-11-11T20:18:57.237Z,12.30
2018-11-11T20:21:25.760Z,12.30
2018-11-11T20:23:54.328Z,12.30
2018-11-11T20:26:22.799Z,12.20
2018-11-11T20:28:51.318Z,12.30
2018-11-11T20:31:19.864Z,12.30
2018-11-11T20:33:48.413Z,12.20
2018-11-11T20:36:16.895Z,12.20
2018-11-11T20:38:45.515Z,12.20
2018-11-11T20:41:14.011Z,12.30
2018-11-11T20:43:42.588Z,12.20
2018-11-11T20:46:11.144Z,12.10
2018-11-11T20:48:39.715Z,12.10
2018-11-11T20:51:08.331Z,12.10
2018-11-11T20:53:36.890Z,12.10
2018-11-11T20:56:05.612Z,12.00
2018-11-11T20:58:34.159Z,12.00
2018-11-11T21:01:02.723Z,12.00
2018-11-11T21:03:31.404Z,11.90
2018-11-11T21:06:00.055Z,11.90
2018-11-11T21:08:28.636Z,11.80
2018-11-11T21:10:57.147Z,11.80
2018-11-11T21:13:25.719Z,11.80
2018-11-11T21:15:54.203Z,11.70
2018-11-11T21:18:22.816Z,11.70
2018-11-11T21:20:51.389Z,11.70
2018-11-11T21:23:20.103Z,11.70
2018-11-11T21:25:48.632Z,11.70
2018-11-11T21:28:17.459Z,11.80
2018-11-11T21:30:45.928Z,11.80
2018-11-11T21:33:14.646Z,11.80
2018-11-11T21:35:43.124Z,11.90
2018-11-11T21:38:11.701Z,11.80
2018-11-11T21:40:40.299Z,11.80
2018-11-11T21:43:08.940Z,11.90
2018-11-11T21:45:37.486Z,11.80
2018-11-11T21:48:06.464Z,11.80
2018-11-11T21:50:34.924Z,11.90
2018-11-11T21:53:23.140Z,11.90
2018-11-11T21:55:51.684Z,11.90
2018-11-11T21:58:20.170Z,11.90
2018-11-11T22:00:48.667Z,11.80
2018-11-11T22:03:17.365Z,11.80
2018-11-11T22:05:45.835Z,11.70
2018-11-11T22:08:14.486Z,11.80
2018-11-11T22:10:42.955Z,11.80
2018-11-11T22:13:11.465Z,11.80
2018-11-11T22:15:40.195Z,11.80
2018-11-11T22:18:08.576Z,11.90
2018-11-11T22:20:37.284Z,11.90
2018-11-11T22:23:06.248Z,11.90
2018-11-11T22:25:34.747Z,11.80
2018-11-11T22:28:03.321Z,11.70
2018-11-11T22:30:31.838Z,11.70
2018-11-11T22:33:00.350Z,11.70
2018-11-11T22:35:29.043Z,11.60
2018-11-11T22:37:57.616Z,11.70
2018-11-11T22:40:26.223Z,11.70
2018-11-11T22:42:54.719Z,11.70
2018-11-11T22:45:23.228Z,11.80
2018-11-11T22:47:51.800Z,11.70
2018-11-11T22:50:20.469Z,11.70
2018-11-11T22:52:48.963Z,11.70
2018-11-11T22:55:17.435Z,11.80
2018-11-11T22:57:46.102Z,11.80
2018-11-11T23:00:21.507Z,11.70
2018-11-11T23:02:50.714Z,11.80
2018-11-11T23:05:20.367Z,11.80
2018-11-11T23:07:48.851Z,11.90
2018-11-11T23:10:17.707Z,11.90
2018-11-11T23:12:46.210Z,11.90
2018-11-11T23:15:16.096Z,11.90
2018-11-11T23:17:44.614Z,11.90
2018-11-11T23:20:14.914Z,11.90
2018-11-11T23:22:43.478Z,11.90
2018-11-11T23:25:13.763Z,11.90
2018-11-11T23:27:42.332Z,11.90
2018-11-11T23:30:16.312Z,11.90
2018-11-11T23:32:45.114Z,11.90
2018-11-11T23:35:13.575Z,11.90
2018-11-11T23:37:42.679Z,11.90
2018-11-11T23:40:12.479Z,11.90
2018-11-11T23:42:41.791Z,12.00
2018-11-11T23:45:10.459Z,12.00
2018-11-11T23:47:38.935Z,12.00
2018-11-11T23:50:09.671Z,11.90
2018-11-11T23:52:38.263Z,11.80
2018-11-11T23:55:08.503Z,11.70
2018-11-11T23:57:37.043Z,11.80
